sensor_id;sensor_type;location;lat;lon;timestamp;P1;durP1;ratioP1;P2;durP2;ratioP2
35506;SDS011;36461;52.018;21.036;2022-09-17T00:01:17;4.22;;;2.80;;
35506;SDS011;36461;52.018;21.036;2022-09-17T00:03:48;4.53;;;2.55;;
35506;SDS011;36461;52.018;21.036;2022-09-17T00:06:20;3.33;;;2.35;;
35506;SDS011;36461;52.018;21.036;2022-09-17T00:08:49;4.58;;;2.72;;
35506;SDS011;36461;52.018;21.036;2022-09-17T00:11:18;4.05;;;2.80;;
35506;SDS011;36461;52.018;21.036;2022-09-17T00:13:51;4.30;;;2.47;;
35506;SDS011;36461;52.018;21.036;2022-09-17T00:16:21;4.17;;;2.60;;
35506;SDS011;36461;52.018;21.036;2022-09-17T00:18:58;4.60;;;2.65;;
35506;SDS011;36461;52.018;21.036;2022-09-17T00:21:26;3.50;;;2.50;;
35506;SDS011;36461;52.018;21.036;2022-09-17T00:23:57;5.47;;;2.83;;
35506;SDS011;36461;52.018;21.036;2022-09-17T00:26:28;3.62;;;2.60;;
35506;SDS011;36461;52.018;21.036;2022-09-17T00:28:57;3.30;;;2.40;;
35506;SDS011;36461;52.018;21.036;2022-09-17T00:31:25;7.20;;;2.90;;
35506;SDS011;36461;52.018;21.036;2022-09-17T00:33:53;4.50;;;2.83;;
35506;SDS011;36461;52.018;21.036;2022-09-17T00:36:21;4.65;;;2.85;;
35506;SDS011;36461;52.018;21.036;2022-09-17T00:38:52;4.97;;;2.70;;
35506;SDS011;36461;52.018;21.036;2022-09-17T00:41:24;3.70;;;2.80;;
35506;SDS011;36461;52.018;21.036;2022-09-17T00:43:55;6.70;;;2.70;;
35506;SDS011;36461;52.018;21.036;2022-09-17T00:46:32;3.90;;;2.75;;
35506;SDS011;36461;52.018;21.036;2022-09-17T00:49:28;4.58;;;2.60;;
35506;SDS011;36461;52.018;21.036;2022-09-17T00:51:54;3.33;;;2.47;;
35506;SDS011;36461;52.018;21.036;2022-09-17T00:54:33;3.60;;;2.52;;
35506;SDS011;36461;52.018;21.036;2022-09-17T00:57:03;3.98;;;2.80;;
35506;SDS011;36461;52.018;21.036;2022-09-17T00:59:31;4.25;;;2.65;;
35506;SDS011;36461;52.018;21.036;2022-09-17T01:01:58;3.40;;;2.62;;
35506;SDS011;36461;52.018;21.036;2022-09-17T01:04:27;4.45;;;2.83;;
35506;SDS011;36461;52.018;21.036;2022-09-17T01:09:54;7.03;;;2.83;;
35506;SDS011;36461;52.018;21.036;2022-09-17T01:18:40;3.50;;;2.77;;
35506;SDS011;36461;52.018;21.036;2022-09-17T01:35:06;3.27;;;2.80;;
35506;SDS011;36461;52.018;21.036;2022-09-17T01:40:31;7.33;;;2.90;;
35506;SDS011;36461;52.018;21.036;2022-09-17T01:43:12;6.30;;;2.58;;
35506;SDS011;36461;52.018;21.036;2022-09-17T01:45:56;3.92;;;2.85;;
35506;SDS011;36461;52.018;21.036;2022-09-17T01:48:47;5.65;;;2.75;;
35506;SDS011;36461;52.018;21.036;2022-09-17T01:51:21;3.70;;;2.72;;
35506;SDS011;36461;52.018;21.036;2022-09-17T01:53:56;3.22;;;2.72;;
35506;SDS011;36461;52.018;21.036;2022-09-17T01:56:34;3.55;;;2.35;;
35506;SDS011;36461;52.018;21.036;2022-09-17T01:59:07;5.85;;;3.10;;
35506;SDS011;36461;52.018;21.036;2022-09-17T02:01:47;4.40;;;2.65;;
35506;SDS011;36461;52.018;21.036;2022-09-17T02:04:22;3.75;;;2.75;;
35506;SDS011;36461;52.018;21.036;2022-09-17T02:07:07;5.03;;;2.72;;
35506;SDS011;36461;52.018;21.036;2022-09-17T02:09:39;5.60;;;3.02;;
35506;SDS011;36461;52.018;21.036;2022-09-17T02:12:11;4.55;;;2.62;;
35506;SDS011;36461;52.018;21.036;2022-09-17T02:14:47;4.35;;;2.40;;
35506;SDS011;36461;52.018;21.036;2022-09-17T02:17:23;6.08;;;2.60;;
35506;SDS011;36461;52.018;21.036;2022-09-17T02:19:59;3.70;;;2.62;;
35506;SDS011;36461;52.018;21.036;2022-09-17T02:28:02;4.15;;;2.80;;
35506;SDS011;36461;52.018;21.036;2022-09-17T02:30:34;6.92;;;3.02;;
35506;SDS011;36461;52.018;21.036;2022-09-17T02:33:01;4.92;;;2.40;;
35506;SDS011;36461;52.018;21.036;2022-09-17T02:35:31;3.95;;;2.75;;
35506;SDS011;36461;52.018;21.036;2022-09-17T02:40:26;4.08;;;2.40;;
35506;SDS011;36461;52.018;21.036;2022-09-17T02:43:09;4.78;;;2.85;;
35506;SDS011;36461;52.018;21.036;2022-09-17T02:52:12;4.20;;;2.70;;
35506;SDS011;36461;52.018;21.036;2022-09-17T02:57:47;5.42;;;2.75;;
35506;SDS011;36461;52.018;21.036;2022-09-17T03:00:21;5.08;;;2.50;;
35506;SDS011;36461;52.018;21.036;2022-09-17T03:02:49;3.72;;;2.40;;
35506;SDS011;36461;52.018;21.036;2022-09-17T03:05:23;4.03;;;2.75;;
35506;SDS011;36461;52.018;21.036;2022-09-17T03:07:53;3.45;;;2.80;;
35506;SDS011;36461;52.018;21.036;2022-09-17T03:10:24;5.30;;;2.72;;
35506;SDS011;36461;52.018;21.036;2022-09-17T03:12:53;3.98;;;2.40;;
35506;SDS011;36461;52.018;21.036;2022-09-17T03:15:20;6.42;;;2.25;;
35506;SDS011;36461;52.018;21.036;2022-09-17T03:17:46;3.33;;;2.37;;
35506;SDS011;36461;52.018;21.036;2022-09-17T03:20:13;4.70;;;2.42;;
35506;SDS011;36461;52.018;21.036;2022-09-17T03:22:41;4.42;;;2.37;;
35506;SDS011;36461;52.018;21.036;2022-09-17T03:25:08;3.70;;;2.12;;
35506;SDS011;36461;52.018;21.036;2022-09-17T03:27:36;3.67;;;2.60;;
35506;SDS011;36461;52.018;21.036;2022-09-17T03:30:03;2.87;;;2.45;;
35506;SDS011;36461;52.018;21.036;2022-09-17T03:32:32;2.75;;;2.20;;
35506;SDS011;36461;52.018;21.036;2022-09-17T03:34:59;2.40;;;2.20;;
35506;SDS011;36461;52.018;21.036;2022-09-17T03:37:26;3.55;;;2.50;;
35506;SDS011;36461;52.018;21.036;2022-09-17T03:39:54;4.83;;;2.58;;
35506;SDS011;36461;52.018;21.036;2022-09-17T03:42:20;3.98;;;2.50;;
35506;SDS011;36461;52.018;21.036;2022-09-17T03:44:47;3.33;;;2.60;;
35506;SDS011;36461;52.018;21.036;2022-09-17T03:47:13;3.40;;;2.55;;
35506;SDS011;36461;52.018;21.036;2022-09-17T03:49:41;4.00;;;2.33;;
35506;SDS011;36461;52.018;21.036;2022-09-17T03:52:08;4.75;;;2.70;;
35506;SDS011;36461;52.018;21.036;2022-09-17T03:54:34;3.80;;;2.50;;
35506;SDS011;36461;52.018;21.036;2022-09-17T03:57:01;4.35;;;2.80;;
35506;SDS011;36461;52.018;21.036;2022-09-17T04:01:55;3.33;;;2.33;;
35506;SDS011;36461;52.018;21.036;2022-09-17T04:04:23;4.53;;;2.30;;
35506;SDS011;36461;52.018;21.036;2022-09-17T04:06:50;2.55;;;2.00;;
35506;SDS011;36461;52.018;21.036;2022-09-17T04:11:44;5.67;;;2.08;;
35506;SDS011;36461;52.018;21.036;2022-09-17T04:14:11;4.08;;;2.60;;
35506;SDS011;36461;52.018;21.036;2022-09-17T04:16:38;3.80;;;2.35;;
35506;SDS011;36461;52.018;21.036;2022-09-17T04:19:05;4.53;;;2.60;;
35506;SDS011;36461;52.018;21.036;2022-09-17T04:21:32;4.45;;;2.30;;
35506;SDS011;36461;52.018;21.036;2022-09-17T04:24:00;5.65;;;2.40;;
35506;SDS011;36461;52.018;21.036;2022-09-17T04:26:27;3.12;;;2.30;;
35506;SDS011;36461;52.018;21.036;2022-09-17T04:28:54;3.85;;;2.50;;
35506;SDS011;36461;52.018;21.036;2022-09-17T04:31:22;4.58;;;2.95;;
35506;SDS011;36461;52.018;21.036;2022-09-17T04:33:50;4.20;;;2.58;;
35506;SDS011;36461;52.018;21.036;2022-09-17T04:36:17;4.87;;;2.45;;
35506;SDS011;36461;52.018;21.036;2022-09-17T04:38:47;3.72;;;2.70;;
35506;SDS011;36461;52.018;21.036;2022-09-17T04:41:15;3.70;;;2.27;;
35506;SDS011;36461;52.018;21.036;2022-09-17T04:43:41;3.30;;;2.37;;
35506;SDS011;36461;52.018;21.036;2022-09-17T04:46:12;3.25;;;2.75;;
35506;SDS011;36461;52.018;21.036;2022-09-17T04:48:39;4.35;;;2.58;;
35506;SDS011;36461;52.018;21.036;2022-09-17T04:51:05;5.33;;;2.70;;
35506;SDS011;36461;52.018;21.036;2022-09-17T04:53:32;3.35;;;2.60;;
35506;SDS011;36461;52.018;21.036;2022-09-17T04:55:59;3.35;;;2.65;;
35506;SDS011;36461;52.018;21.036;2022-09-17T04:58:27;3.33;;;2.60;;
35506;SDS011;36461;52.018;21.036;2022-09-17T05:00:55;5.45;;;2.90;;
35506;SDS011;36461;52.018;21.036;2022-09-17T05:03:22;4.58;;;2.30;;
35506;SDS011;36461;52.018;21.036;2022-09-17T05:05:48;4.10;;;2.47;;
35506;SDS011;36461;52.018;21.036;2022-09-17T05:08:15;3.80;;;2.30;;
35506;SDS011;36461;52.018;21.036;2022-09-17T05:10:41;3.42;;;2.17;;
35506;SDS011;36461;52.018;21.036;2022-09-17T05:13:07;5.33;;;2.10;;
35506;SDS011;36461;52.018;21.036;2022-09-17T05:18:01;3.98;;;2.35;;
35506;SDS011;36461;52.018;21.036;2022-09-17T05:20:27;6.22;;;2.30;;
35506;SDS011;36461;52.018;21.036;2022-09-17T05:22:55;5.08;;;2.10;;
35506;SDS011;36461;52.018;21.036;2022-09-17T05:25:22;4.25;;;2.12;;
35506;SDS011;36461;52.018;21.036;2022-09-17T05:27:52;2.83;;;2.30;;
35506;SDS011;36461;52.018;21.036;2022-09-17T05:30:21;4.50;;;2.60;;
35506;SDS011;36461;52.018;21.036;2022-09-17T05:32:47;5.45;;;2.40;;
35506;SDS011;36461;52.018;21.036;2022-09-17T05:35:15;6.42;;;3.22;;
35506;SDS011;36461;52.018;21.036;2022-09-17T05:37:42;4.33;;;2.42;;
35506;SDS011;36461;52.018;21.036;2022-09-17T05:40:09;3.05;;;2.30;;
35506;SDS011;36461;52.018;21.036;2022-09-17T05:42:36;4.00;;;2.40;;
35506;SDS011;36461;52.018;21.036;2022-09-17T05:45:03;2.85;;;2.02;;
35506;SDS011;36461;52.018;21.036;2022-09-17T05:47:32;2.55;;;1.95;;
35506;SDS011;36461;52.018;21.036;2022-09-17T05:50:00;3.20;;;2.20;;
35506;SDS011;36461;52.018;21.036;2022-09-17T05:52:28;2.67;;;2.30;;
35506;SDS011;36461;52.018;21.036;2022-09-17T05:54:55;2.47;;;1.80;;
35506;SDS011;36461;52.018;21.036;2022-09-17T05:57:22;3.05;;;2.12;;
35506;SDS011;36461;52.018;21.036;2022-09-17T05:59:49;2.52;;;2.10;;
35506;SDS011;36461;52.018;21.036;2022-09-17T06:02:17;4.60;;;1.90;;
35506;SDS011;36461;52.018;21.036;2022-09-17T06:07:11;3.58;;;2.30;;
35506;SDS011;36461;52.018;21.036;2022-09-17T06:09:38;2.00;;;1.80;;
35506;SDS011;36461;52.018;21.036;2022-09-17T06:12:06;5.65;;;1.87;;
35506;SDS011;36461;52.018;21.036;2022-09-17T06:14:34;2.65;;;1.82;;
35506;SDS011;36461;52.018;21.036;2022-09-17T06:17:02;4.65;;;2.95;;
35506;SDS011;36461;52.018;21.036;2022-09-17T06:19:30;3.22;;;1.70;;
35506;SDS011;36461;52.018;21.036;2022-09-17T06:21:56;2.75;;;1.82;;
35506;SDS011;36461;52.018;21.036;2022-09-17T06:26:54;2.95;;;1.87;;
35506;SDS011;36461;52.018;21.036;2022-09-17T06:29:19;3.87;;;1.92;;
35506;SDS011;36461;52.018;21.036;2022-09-17T06:31:46;3.90;;;1.90;;
35506;SDS011;36461;52.018;21.036;2022-09-17T06:34:13;3.47;;;1.90;;
35506;SDS011;36461;52.018;21.036;2022-09-17T06:36:41;2.90;;;1.95;;
35506;SDS011;36461;52.018;21.036;2022-09-17T06:39:07;3.40;;;1.98;;
35506;SDS011;36461;52.018;21.036;2022-09-17T06:41:40;4.22;;;1.80;;
35506;SDS011;36461;52.018;21.036;2022-09-17T06:44:07;5.47;;;1.65;;
35506;SDS011;36461;52.018;21.036;2022-09-17T06:46:34;4.65;;;1.80;;
35506;SDS011;36461;52.018;21.036;2022-09-17T06:49:01;4.55;;;1.80;;
35506;SDS011;36461;52.018;21.036;2022-09-17T06:51:28;3.10;;;1.50;;
35506;SDS011;36461;52.018;21.036;2022-09-17T06:53:55;3.40;;;2.05;;
35506;SDS011;36461;52.018;21.036;2022-09-17T06:56:21;2.45;;;1.50;;
35506;SDS011;36461;52.018;21.036;2022-09-17T06:58:48;2.77;;;1.30;;
35506;SDS011;36461;52.018;21.036;2022-09-17T07:01:15;2.52;;;1.80;;
35506;SDS011;36461;52.018;21.036;2022-09-17T07:03:41;3.00;;;1.47;;
35506;SDS011;36461;52.018;21.036;2022-09-17T07:06:09;3.33;;;1.42;;
35506;SDS011;36461;52.018;21.036;2022-09-17T07:08:37;3.50;;;1.72;;
35506;SDS011;36461;52.018;21.036;2022-09-17T07:11:05;2.12;;;1.20;;
35506;SDS011;36461;52.018;21.036;2022-09-17T07:13:32;3.20;;;1.42;;
35506;SDS011;36461;52.018;21.036;2022-09-17T07:16:00;2.62;;;1.10;;
35506;SDS011;36461;52.018;21.036;2022-09-17T07:18:31;2.85;;;1.10;;
35506;SDS011;36461;52.018;21.036;2022-09-17T07:20:58;3.30;;;1.22;;
35506;SDS011;36461;52.018;21.036;2022-09-17T07:23:30;3.22;;;1.07;;
35506;SDS011;36461;52.018;21.036;2022-09-17T07:26:06;1.95;;;1.57;;
35506;SDS011;36461;52.018;21.036;2022-09-17T07:28:40;3.15;;;1.40;;
35506;SDS011;36461;52.018;21.036;2022-09-17T07:31:08;3.15;;;1.20;;
35506;SDS011;36461;52.018;21.036;2022-09-17T07:33:36;3.37;;;1.07;;
35506;SDS011;36461;52.018;21.036;2022-09-17T07:36:06;2.60;;;1.10;;
35506;SDS011;36461;52.018;21.036;2022-09-17T07:38:36;2.15;;;1.07;;
35506;SDS011;36461;52.018;21.036;2022-09-17T07:41:04;3.85;;;1.55;;
35506;SDS011;36461;52.018;21.036;2022-09-17T07:46:09;6.03;;;1.50;;
35506;SDS011;36461;52.018;21.036;2022-09-17T07:48:44;3.83;;;1.45;;
35506;SDS011;36461;52.018;21.036;2022-09-17T07:51:20;4.33;;;1.30;;
35506;SDS011;36461;52.018;21.036;2022-09-17T07:53:45;2.27;;;1.32;;
35506;SDS011;36461;52.018;21.036;2022-09-17T07:56:12;4.78;;;1.50;;
35506;SDS011;36461;52.018;21.036;2022-09-17T07:58:39;3.27;;;1.30;;
35506;SDS011;36461;52.018;21.036;2022-09-17T08:01:07;2.72;;;1.40;;
35506;SDS011;36461;52.018;21.036;2022-09-17T08:03:36;3.83;;;1.37;;
35506;SDS011;36461;52.018;21.036;2022-09-17T08:06:05;3.85;;;1.87;;
35506;SDS011;36461;52.018;21.036;2022-09-17T08:08:38;2.40;;;1.10;;
35506;SDS011;36461;52.018;21.036;2022-09-17T08:11:07;3.67;;;1.22;;
35506;SDS011;36461;52.018;21.036;2022-09-17T08:13:37;3.67;;;1.20;;
35506;SDS011;36461;52.018;21.036;2022-09-17T08:16:07;2.02;;;1.30;;
35506;SDS011;36461;52.018;21.036;2022-09-17T08:18:39;2.22;;;1.10;;
35506;SDS011;36461;52.018;21.036;2022-09-17T08:21:09;3.47;;;1.32;;
35506;SDS011;36461;52.018;21.036;2022-09-17T08:23:39;2.33;;;1.37;;
35506;SDS011;36461;52.018;21.036;2022-09-17T08:26:11;3.67;;;1.50;;
35506;SDS011;36461;52.018;21.036;2022-09-17T08:28:45;1.90;;;1.20;;
35506;SDS011;36461;52.018;21.036;2022-09-17T08:31:16;2.87;;;1.55;;
35506;SDS011;36461;52.018;21.036;2022-09-17T08:33:45;2.87;;;1.30;;
35506;SDS011;36461;52.018;21.036;2022-09-17T08:36:14;1.98;;;1.20;;
35506;SDS011;36461;52.018;21.036;2022-09-17T08:38:44;4.65;;;1.50;;
35506;SDS011;36461;52.018;21.036;2022-09-17T08:44:22;2.47;;;1.40;;
35506;SDS011;36461;52.018;21.036;2022-09-17T08:47:07;2.05;;;1.27;;
35506;SDS011;36461;52.018;21.036;2022-09-17T08:58:05;2.45;;;1.22;;
35506;SDS011;36461;52.018;21.036;2022-09-17T09:06:53;2.20;;;1.10;;
35506;SDS011;36461;52.018;21.036;2022-09-17T09:09:23;1.65;;;1.20;;
35506;SDS011;36461;52.018;21.036;2022-09-17T09:11:58;1.67;;;1.07;;
35506;SDS011;36461;52.018;21.036;2022-09-17T09:14:47;1.95;;;1.15;;
35506;SDS011;36461;52.018;21.036;2022-09-17T09:17:20;1.95;;;1.10;;
35506;SDS011;36461;52.018;21.036;2022-09-17T09:19:50;2.12;;;1.10;;
35506;SDS011;36461;52.018;21.036;2022-09-17T09:25:22;1.35;;;1.25;;
35506;SDS011;36461;52.018;21.036;2022-09-17T09:27:59;1.95;;;1.25;;
35506;SDS011;36461;52.018;21.036;2022-09-17T09:33:40;1.92;;;1.00;;
35506;SDS011;36461;52.018;21.036;2022-09-17T09:36:10;2.20;;;1.40;;
35506;SDS011;36461;52.018;21.036;2022-09-17T09:41:24;3.22;;;2.10;;
35506;SDS011;36461;52.018;21.036;2022-09-17T10:01:00;2.17;;;1.35;;
35506;SDS011;36461;52.018;21.036;2022-09-17T10:03:28;2.20;;;1.22;;
35506;SDS011;36461;52.018;21.036;2022-09-17T10:06:01;3.17;;;1.12;;
35506;SDS011;36461;52.018;21.036;2022-09-17T10:08:35;2.50;;;1.20;;
35506;SDS011;36461;52.018;21.036;2022-09-17T10:11:15;1.72;;;1.20;;
35506;SDS011;36461;52.018;21.036;2022-09-17T10:13:37;2.20;;;1.17;;
35506;SDS011;36461;52.018;21.036;2022-09-17T10:16:15;2.62;;;1.30;;
35506;SDS011;36461;52.018;21.036;2022-09-17T10:21:35;2.62;;;1.30;;
35506;SDS011;36461;52.018;21.036;2022-09-17T10:24:10;3.33;;;1.37;;
35506;SDS011;36461;52.018;21.036;2022-09-17T10:26:59;2.60;;;1.10;;
35506;SDS011;36461;52.018;21.036;2022-09-17T10:29:46;1.62;;;1.20;;
35506;SDS011;36461;52.018;21.036;2022-09-17T10:32:16;2.37;;;1.40;;
35506;SDS011;36461;52.018;21.036;2022-09-17T10:35:00;3.22;;;1.60;;
35506;SDS011;36461;52.018;21.036;2022-09-17T10:37:47;2.30;;;1.50;;
35506;SDS011;36461;52.018;21.036;2022-09-17T10:45:56;1.65;;;1.30;;
35506;SDS011;36461;52.018;21.036;2022-09-17T10:48:27;2.40;;;1.40;;
35506;SDS011;36461;52.018;21.036;2022-09-17T10:50:57;2.58;;;1.27;;
35506;SDS011;36461;52.018;21.036;2022-09-17T10:53:27;1.98;;;1.20;;
35506;SDS011;36461;52.018;21.036;2022-09-17T11:02:03;1.37;;;0.80;;
35506;SDS011;36461;52.018;21.036;2022-09-17T11:04:27;1.55;;;0.90;;
35506;SDS011;36461;52.018;21.036;2022-09-17T11:09:44;1.45;;;0.95;;
35506;SDS011;36461;52.018;21.036;2022-09-17T11:15:39;1.32;;;0.75;;
35506;SDS011;36461;52.018;21.036;2022-09-17T11:21:08;1.92;;;1.07;;
35506;SDS011;36461;52.018;21.036;2022-09-17T11:26:44;1.40;;;1.20;;
35506;SDS011;36461;52.018;21.036;2022-09-17T11:34:59;1.80;;;1.20;;
35506;SDS011;36461;52.018;21.036;2022-09-17T11:38:28;1.37;;;0.93;;
35506;SDS011;36461;52.018;21.036;2022-09-17T11:43:18;1.22;;;0.93;;
35506;SDS011;36461;52.018;21.036;2022-09-17T11:48:36;3.10;;;1.65;;
35506;SDS011;36461;52.018;21.036;2022-09-17T11:54:16;1.98;;;1.60;;
35506;SDS011;36461;52.018;21.036;2022-09-17T11:57:09;2.33;;;1.50;;
35506;SDS011;36461;52.018;21.036;2022-09-17T12:00:04;1.55;;;1.42;;
35506;SDS011;36461;52.018;21.036;2022-09-17T12:02:43;1.82;;;1.30;;
35506;SDS011;36461;52.018;21.036;2022-09-17T12:05:27;1.20;;;1.10;;
35506;SDS011;36461;52.018;21.036;2022-09-17T12:08:11;1.75;;;1.10;;
35506;SDS011;36461;52.018;21.036;2022-09-17T12:16:24;2.10;;;1.00;;
35506;SDS011;36461;52.018;21.036;2022-09-17T12:21:36;2.00;;;1.27;;
35506;SDS011;36461;52.018;21.036;2022-09-17T12:24:15;1.47;;;1.30;;
35506;SDS011;36461;52.018;21.036;2022-09-17T12:35:54;2.77;;;1.57;;
35506;SDS011;36461;52.018;21.036;2022-09-17T12:41:34;2.40;;;1.40;;
35506;SDS011;36461;52.018;21.036;2022-09-17T12:44:23;1.85;;;1.65;;
35506;SDS011;36461;52.018;21.036;2022-09-17T12:55:45;3.77;;;1.57;;
35506;SDS011;36461;52.018;21.036;2022-09-17T13:07:13;2.33;;;1.60;;
35506;SDS011;36461;52.018;21.036;2022-09-17T13:15:54;1.15;;;1.00;;
35506;SDS011;36461;52.018;21.036;2022-09-17T13:19:11;1.87;;;1.40;;
35506;SDS011;36461;52.018;21.036;2022-09-17T13:21:05;1.92;;;1.45;;
35506;SDS011;36461;52.018;21.036;2022-09-17T13:26:11;1.75;;;1.37;;
35506;SDS011;36461;52.018;21.036;2022-09-17T13:28:43;2.27;;;1.30;;
35506;SDS011;36461;52.018;21.036;2022-09-17T13:31:18;3.22;;;1.30;;
35506;SDS011;36461;52.018;21.036;2022-09-17T13:33:56;1.47;;;1.30;;
35506;SDS011;36461;52.018;21.036;2022-09-17T13:39:55;2.45;;;1.35;;
35506;SDS011;36461;52.018;21.036;2022-09-17T13:42:11;2.02;;;1.80;;
35506;SDS011;36461;52.018;21.036;2022-09-17T13:45:03;1.70;;;1.40;;
35506;SDS011;36461;52.018;21.036;2022-09-17T13:47:47;2.45;;;2.02;;
35506;SDS011;36461;52.018;21.036;2022-09-17T13:55:47;2.02;;;1.70;;
35506;SDS011;36461;52.018;21.036;2022-09-17T14:00:53;3.25;;;2.02;;
35506;SDS011;36461;52.018;21.036;2022-09-17T14:08:50;2.00;;;1.70;;
35506;SDS011;36461;52.018;21.036;2022-09-17T14:19:16;2.72;;;1.72;;
35506;SDS011;36461;52.018;21.036;2022-09-17T14:30:14;2.02;;;1.47;;
35506;SDS011;36461;52.018;21.036;2022-09-17T14:35:40;2.33;;;1.70;;
35506;SDS011;36461;52.018;21.036;2022-09-17T14:38:22;2.63;;;1.67;;
35506;SDS011;36461;52.018;21.036;2022-09-17T14:46:37;2.27;;;1.72;;
35506;SDS011;36461;52.018;21.036;2022-09-17T14:49:24;2.50;;;1.85;;
35506;SDS011;36461;52.018;21.036;2022-09-17T14:51:54;2.65;;;1.82;;
35506;SDS011;36461;52.018;21.036;2022-09-17T14:54:26;2.62;;;1.80;;
35506;SDS011;36461;52.018;21.036;2022-09-17T14:57:02;2.22;;;1.77;;
35506;SDS011;36461;52.018;21.036;2022-09-17T14:59:50;2.02;;;1.77;;
35506;SDS011;36461;52.018;21.036;2022-09-17T15:05:20;2.55;;;1.80;;
35506;SDS011;36461;52.018;21.036;2022-09-17T15:13:29;2.77;;;1.80;;
35506;SDS011;36461;52.018;21.036;2022-09-17T15:16:09;2.58;;;1.77;;
35506;SDS011;36461;52.018;21.036;2022-09-17T15:18:49;2.50;;;1.80;;
35506;SDS011;36461;52.018;21.036;2022-09-17T15:24:22;2.85;;;1.82;;
35506;SDS011;36461;52.018;21.036;2022-09-17T15:27:13;2.25;;;1.82;;
35506;SDS011;36461;52.018;21.036;2022-09-17T15:29:58;3.72;;;2.08;;
35506;SDS011;36461;52.018;21.036;2022-09-17T15:32:32;2.85;;;2.10;;
35506;SDS011;36461;52.018;21.036;2022-09-17T15:37:45;3.20;;;1.92;;
35506;SDS011;36461;52.018;21.036;2022-09-17T15:40:30;3.45;;;2.15;;
35506;SDS011;36461;52.018;21.036;2022-09-17T15:45:48;2.90;;;2.10;;
35506;SDS011;36461;52.018;21.036;2022-09-17T15:51:11;3.52;;;2.05;;
35506;SDS011;36461;52.018;21.036;2022-09-17T15:53:58;3.00;;;2.42;;
35506;SDS011;36461;52.018;21.036;2022-09-17T15:56:35;5.08;;;2.90;;
35506;SDS011;36461;52.018;21.036;2022-09-17T15:59:23;5.10;;;3.55;;
35506;SDS011;36461;52.018;21.036;2022-09-17T16:01:55;4.78;;;3.17;;
35506;SDS011;36461;52.018;21.036;2022-09-17T16:04:25;5.10;;;3.40;;
35506;SDS011;36461;52.018;21.036;2022-09-17T16:09:45;3.62;;;2.77;;
35506;SDS011;36461;52.018;21.036;2022-09-17T16:12:18;3.22;;;2.45;;
35506;SDS011;36461;52.018;21.036;2022-09-17T16:14:48;5.15;;;3.33;;
35506;SDS011;36461;52.018;21.036;2022-09-17T16:17:23;3.50;;;3.00;;
35506;SDS011;36461;52.018;21.036;2022-09-17T16:22:46;2.42;;;2.22;;
35506;SDS011;36461;52.018;21.036;2022-09-17T16:25:13;2.95;;;2.10;;
35506;SDS011;36461;52.018;21.036;2022-09-17T16:30:33;3.58;;;2.17;;
35506;SDS011;36461;52.018;21.036;2022-09-17T16:33:01;3.83;;;2.02;;
35506;SDS011;36461;52.018;21.036;2022-09-17T16:35:28;2.87;;;2.30;;
35506;SDS011;36461;52.018;21.036;2022-09-17T16:40:23;3.00;;;2.70;;
35506;SDS011;36461;52.018;21.036;2022-09-17T16:42:58;2.85;;;2.00;;
35506;SDS011;36461;52.018;21.036;2022-09-17T16:45:29;2.50;;;2.02;;
35506;SDS011;36461;52.018;21.036;2022-09-17T16:47:56;2.58;;;2.37;;
35506;SDS011;36461;52.018;21.036;2022-09-17T16:50:24;2.85;;;2.58;;
35506;SDS011;36461;52.018;21.036;2022-09-17T16:52:52;3.90;;;2.35;;
35506;SDS011;36461;52.018;21.036;2022-09-17T16:55:19;2.60;;;2.40;;
35506;SDS011;36461;52.018;21.036;2022-09-17T16:57:47;4.12;;;2.72;;
35506;SDS011;36461;52.018;21.036;2022-09-17T17:00:15;2.58;;;2.25;;
35506;SDS011;36461;52.018;21.036;2022-09-17T17:02:53;3.17;;;2.10;;
35506;SDS011;36461;52.018;21.036;2022-09-17T17:05:22;3.37;;;2.47;;
35506;SDS011;36461;52.018;21.036;2022-09-17T17:07:50;3.75;;;2.20;;
35506;SDS011;36461;52.018;21.036;2022-09-17T17:10:20;3.27;;;2.50;;
35506;SDS011;36461;52.018;21.036;2022-09-17T17:12:48;3.35;;;2.85;;
35506;SDS011;36461;52.018;21.036;2022-09-17T17:15:15;5.42;;;2.80;;
35506;SDS011;36461;52.018;21.036;2022-09-17T17:17:42;3.27;;;2.60;;
35506;SDS011;36461;52.018;21.036;2022-09-17T17:20:09;3.77;;;2.83;;
35506;SDS011;36461;52.018;21.036;2022-09-17T17:22:38;3.70;;;2.83;;
35506;SDS011;36461;52.018;21.036;2022-09-17T17:25:08;3.67;;;3.37;;
35506;SDS011;36461;52.018;21.036;2022-09-17T17:27:38;3.15;;;2.65;;
35506;SDS011;36461;52.018;21.036;2022-09-17T17:30:06;7.62;;;2.72;;
35506;SDS011;36461;52.018;21.036;2022-09-17T17:32:36;4.87;;;3.10;;
35506;SDS011;36461;52.018;21.036;2022-09-17T17:35:03;4.55;;;3.15;;
35506;SDS011;36461;52.018;21.036;2022-09-17T17:37:32;3.92;;;3.30;;
35506;SDS011;36461;52.018;21.036;2022-09-17T17:39:59;4.65;;;3.58;;
35506;SDS011;36461;52.018;21.036;2022-09-17T17:42:28;5.28;;;3.60;;
35506;SDS011;36461;52.018;21.036;2022-09-17T17:44:56;6.12;;;3.98;;
35506;SDS011;36461;52.018;21.036;2022-09-17T17:47:23;6.45;;;3.85;;
35506;SDS011;36461;52.018;21.036;2022-09-17T17:49:49;6.50;;;4.33;;
35506;SDS011;36461;52.018;21.036;2022-09-17T17:52:16;7.12;;;5.00;;
35506;SDS011;36461;52.018;21.036;2022-09-17T17:54:42;7.45;;;4.83;;
35506;SDS011;36461;52.018;21.036;2022-09-17T17:57:09;7.05;;;5.78;;
35506;SDS011;36461;52.018;21.036;2022-09-17T17:59:36;7.05;;;5.45;;
35506;SDS011;36461;52.018;21.036;2022-09-17T18:02:03;6.97;;;5.25;;
35506;SDS011;36461;52.018;21.036;2022-09-17T18:04:31;6.35;;;4.67;;
35506;SDS011;36461;52.018;21.036;2022-09-17T18:06:58;6.97;;;5.15;;
35506;SDS011;36461;52.018;21.036;2022-09-17T18:09:24;7.78;;;6.22;;
35506;SDS011;36461;52.018;21.036;2022-09-17T18:11:51;11.75;;;7.50;;
35506;SDS011;36461;52.018;21.036;2022-09-17T18:14:19;14.18;;;9.85;;
35506;SDS011;36461;52.018;21.036;2022-09-17T18:19:12;15.30;;;10.78;;
35506;SDS011;36461;52.018;21.036;2022-09-17T18:21:40;12.25;;;8.25;;
35506;SDS011;36461;52.018;21.036;2022-09-17T18:24:07;12.15;;;8.50;;
35506;SDS011;36461;52.018;21.036;2022-09-17T18:26:35;13.60;;;9.70;;
35506;SDS011;36461;52.018;21.036;2022-09-17T18:29:02;13.95;;;9.90;;
35506;SDS011;36461;52.018;21.036;2022-09-17T18:31:30;15.40;;;10.23;;
35506;SDS011;36461;52.018;21.036;2022-09-17T18:34:04;13.68;;;11.33;;
35506;SDS011;36461;52.018;21.036;2022-09-17T18:36:35;16.73;;;12.33;;
35506;SDS011;36461;52.018;21.036;2022-09-17T18:39:27;19.73;;;15.58;;
35506;SDS011;36461;52.018;21.036;2022-09-17T18:49:16;21.45;;;16.65;;
35506;SDS011;36461;52.018;21.036;2022-09-17T18:54:09;28.12;;;20.70;;
35506;SDS011;36461;52.018;21.036;2022-09-17T18:56:39;34.65;;;28.73;;
35506;SDS011;36461;52.018;21.036;2022-09-17T19:01:34;28.98;;;22.48;;
35506;SDS011;36461;52.018;21.036;2022-09-17T19:04:01;31.85;;;22.58;;
35506;SDS011;36461;52.018;21.036;2022-09-17T19:06:29;30.70;;;22.58;;
35506;SDS011;36461;52.018;21.036;2022-09-17T19:08:59;25.45;;;19.37;;
35506;SDS011;36461;52.018;21.036;2022-09-17T19:11:28;24.87;;;18.67;;
35506;SDS011;36461;52.018;21.036;2022-09-17T19:16:21;20.77;;;16.02;;
35506;SDS011;36461;52.018;21.036;2022-09-17T19:18:49;21.17;;;15.28;;
35506;SDS011;36461;52.018;21.036;2022-09-17T19:21:17;20.68;;;15.80;;
35506;SDS011;36461;52.018;21.036;2022-09-17T19:23:49;22.02;;;17.12;;
35506;SDS011;36461;52.018;21.036;2022-09-17T19:26:19;21.35;;;17.02;;
35506;SDS011;36461;52.018;21.036;2022-09-17T19:28:57;25.65;;;18.02;;
35506;SDS011;36461;52.018;21.036;2022-09-17T19:31:23;23.45;;;18.50;;
35506;SDS011;36461;52.018;21.036;2022-09-17T19:33:51;26.00;;;19.23;;
35506;SDS011;36461;52.018;21.036;2022-09-17T19:36:28;23.95;;;18.85;;